Terminal Aerodrome Forecast
Issued by NWS Buffalo, NY

Home | Current Version | Previous Version | Text Only | Print | Product List | Glossary On
Versions: 1 2 3 4 5 6 7 8 9 10 11 12 13 14 15 16 17 18 19 20 21 22 23 24 25 26 27 28
000
FTUS41 KBUF 310300 AAA
TAFBUF
TAF AMD
KBUF 310319Z 3103/3124 20007KT P6SM VCSH BKN080
     FM310600 20010KT P6SM -SHRA VCTS OVC050CB
     FM310900 22011KT P6SM VCSH OVC060
     FM311200 22011KT 6SM -SHRA OVC045
     FM311500 22015KT P6SM VCSH BKN030
     FM311700 23017G23KT P6SM BKN035=

USA.gov is the U.S. government's official web portal to all federal, state and local government web resources and services.